Artemisa, Cuba

1:32 AM CDT on September 17, 2014 (GMT -0400)
Jose Marti International | Change Station
CLOSE
Current Station
Airport
Location: Havana,
Elevation: 246 ft
Nearby Weather Stations

Elev 246 ft 22.99 °N, 82.41 °W | Updated 37 minutes ago

Clear
Clear
72 °F
Feels Like 72 °F
N
2
Wind Variable Wind from NE

Today
High -- | Low -- °F
--% Chance of Precip.
Yesterday
High -- | Low -- °F
Precip. -- in
7:18 AM 7:32 PM
Last Quarter, 39% visible
Pressure 30.01 in
Visibility 5.6 miles
Clouds
Dew Point 68 °F
Humidity 88%
Rainfall 0.00 in
Snow Depth Not available.
UV Not available.
Pollen Not available.
Air Quality Not available.
Flu Activity Not available.
METAR MUHA 170455Z 05002KT 9000 NSC 22/20 Q1016

More Conditions Fewer Conditions

Pressure 30.01 in
Visibility 5.6 miles
Clouds
Dew Point 68 °F
Humidity 88%
Rainfall 0.00 in
Snow Depth Not available.
UV Not available.
Pollen Not available.
Air Quality Not available.
Flu Activity Not available.
METAR MUHA 170455Z 05002KT 9000 NSC 22/20 Q1016

More Conditions Fewer Conditions

10-Day Weather Forecast

Almanac

Astronomy

Sep. 17, 2014 Rise Set
Actual Time 7:18 AM CDT 7:32 PM CDT
Civil Twilight 6:55 AM CDT 7:54 PM CDT
Nautical Twilight 6:29 AM CDT 8:20 PM CDT
Astronomical Twilight 6:03 AM CDT 8:47 PM CDT
Moon 1:46 AM CDT 3:13 PM CDT
Length of Visible Light 12h 59m
Length of Day
12h 14m
Tomorrow will be 1m 19s shorter.
Last Quarter, 39% of the Moon is Illuminated
Today
Last Quarter
Sep 24
New
Oct 1
First Quarter
Oct 8
Full
Oct 15
Last Quarter

Yesterday's Extremes

Country Highs Country Lows

Community

WunderPhotos

Upload Photos

1,753,968 photos uploaded!

Nearby

Snow Depth

Not available.

Earthquake Activity

City Distance Mag. Time & Date
No recent earthquake activity has been reported nearby.
Minimum magnitude displayed is 2.5.

Coastal Water Temperatures

Place Temperature
No Stations Reporting

Nearby Weather Stations